Time;durP1;ratioP1;P1;durP2;ratioP2;P2;SDS_P1;SDS_P2;PMS_P1;PMS_P2;Temp;Humidity;BMP_temperature;BMP_pressure;BME280_temperature;BME280_humidity;BME280_pressure;Samples;Min_cycle;Max_cycle;Signal;HPM_P1;HPM_P2
2023/12/04 00:01:16;;;;;;;7.70;3.20;;;0.60;99.90;;;;;;5091799;28;20028;-54
2023/12/04 00:03:41;;;;;;;7.67;4.40;;;0.70;99.90;;;;;;5090489;28;20067;-53
2023/12/04 00:06:07;;;;;;;13.53;5.07;;;0.70;99.90;;;;;;5091512;28;20125;-50
2023/12/04 00:08:33;;;;;;;13.90;5.07;;;0.70;99.90;;;;;;5091486;28;20077;-54
2023/12/04 00:10:59;;;;;;;12.13;4.53;;;0.70;99.90;;;;;;5093039;28;20032;-54
2023/12/04 00:13:24;;;;;;;12.93;3.40;;;0.70;99.90;;;;;;5095642;28;20077;-54
2023/12/04 00:15:50;;;;;;;8.27;3.70;;;0.70;99.90;;;;;;5095639;28;20487;-53
2023/12/04 00:18:16;;;;;;;13.47;4.90;;;0.70;99.90;;;;;;5095717;28;20081;-52
2023/12/04 00:20:41;;;;;;;10.03;4.13;;;0.70;99.90;;;;;;5095450;28;20036;-53
2023/12/04 00:23:07;;;;;;;9.13;3.60;;;0.80;99.90;;;;;;5095620;28;20081;-54
2023/12/04 00:25:32;;;;;;;10.17;3.77;;;0.80;99.90;;;;;;5095375;28;20032;-53
2023/12/04 00:27:58;;;;;;;11.37;4.50;;;0.80;99.90;;;;;;5095251;28;20031;-52
2023/12/04 00:30:23;;;;;;;9.40;3.90;;;0.80;99.90;;;;;;5095233;28;20032;-54
2023/12/04 00:32:49;;;;;;;10.87;4.03;;;0.90;99.90;;;;;;5095580;28;20028;-53
2023/12/04 00:35:15;;;;;;;14.67;5.63;;;0.90;99.90;;;;;;5094154;28;20103;-53
2023/12/04 00:37:40;;;;;;;11.53;3.67;;;0.90;99.90;;;;;;5095162;28;20484;-54
2023/12/04 00:40:09;;;;;;;7.03;2.67;;;0.90;99.90;;;;;;5095073;28;20050;-54
2023/12/04 00:42:35;;;;;;;11.43;4.53;;;0.90;99.90;;;;;;5095191;28;20066;-52
2023/12/04 00:45:02;;;;;;;16.07;4.33;;;1.00;99.90;;;;;;5095013;28;20062;-54
2023/12/04 00:47:28;;;;;;;7.40;3.43;;;1.00;99.90;;;;;;5095103;28;20035;-53
2023/12/04 00:49:53;;;;;;;6.03;2.83;;;1.00;99.90;;;;;;5094823;28;20108;-54
2023/12/04 00:52:19;;;;;;;8.17;3.17;;;1.00;99.90;;;;;;5095014;28;20028;-54
2023/12/04 00:54:44;;;;;;;11.37;4.27;;;1.00;99.90;;;;;;5093637;28;20028;-54
2023/12/04 00:57:10;;;;;;;9.87;4.17;;;1.00;99.90;;;;;;5094890;28;20542;-54
2023/12/04 00:59:36;;;;;;;10.40;3.83;;;1.00;99.90;;;;;;5094763;28;20028;-54
2023/12/04 01:02:01;;;;;;;10.40;4.43;;;1.00;99.90;;;;;;5094868;28;20447;-54
2023/12/04 01:04:27;;;;;;;7.63;3.27;;;1.00;99.90;;;;;;5094582;28;20103;-53
2023/12/04 01:06:52;;;;;;;9.80;4.03;;;1.10;99.90;;;;;;5094722;28;20498;-54
2023/12/04 01:09:23;;;;;;;7.60;2.67;;;1.10;99.90;;;;;;5094581;28;20031;-54
2023/12/04 01:11:53;;;;;;;8.67;3.70;;;1.00;99.90;;;;;;5094535;28;20047;-52
2023/12/04 01:14:19;;;;;;;7.40;3.17;;;1.10;99.90;;;;;;5094453;28;20556;-53
2023/12/04 01:16:44;;;;;;;7.53;3.70;;;1.00;99.90;;;;;;5094536;28;20028;-54
2023/12/04 01:19:10;;;;;;;7.87;3.43;;;1.10;99.90;;;;;;5094504;28;20031;-50
2023/12/04 01:21:35;;;;;;;5.50;1.83;;;1.00;99.90;;;;;;5094323;28;20031;-54
2023/12/04 01:24:01;;;;;;;8.53;3.67;;;1.10;99.90;;;;;;5093316;28;20028;-54
2023/12/04 01:26:26;;;;;;;10.17;3.63;;;1.10;99.90;;;;;;5094134;28;20503;-54
2023/12/04 01:28:52;;;;;;;11.77;4.00;;;1.10;99.90;;;;;;5094145;28;20073;-53
2023/12/04 01:31:18;;;;;;;9.67;3.60;;;1.00;99.90;;;;;;5094174;28;20051;-51
2023/12/04 01:33:43;;;;;;;7.03;2.53;;;1.10;99.90;;;;;;5094273;28;20428;-53
2023/12/04 01:36:09;;;;;;;11.67;3.93;;;1.10;99.90;;;;;;5093962;28;20065;-52
2023/12/04 01:38:35;;;;;;;11.40;4.23;;;1.10;99.90;;;;;;5093903;28;20476;-54
2023/12/04 01:41:01;;;;;;;10.67;3.97;;;1.10;99.90;;;;;;5094099;28;20492;-54
2023/12/04 01:43:28;;;;;;;9.30;3.27;;;1.10;99.90;;;;;;5094060;28;20062;-51
2023/12/04 01:45:54;;;;;;;6.93;2.90;;;1.10;99.90;;;;;;5093738;28;20089;-53
2023/12/04 01:48:21;;;;;;;8.00;3.23;;;1.10;99.90;;;;;;5093708;28;20434;-54
2023/12/04 01:50:47;;;;;;;9.37;3.60;;;1.10;99.90;;;;;;5093764;28;20103;-53
2023/12/04 01:53:13;;;;;;;7.90;3.50;;;1.10;99.90;;;;;;5093768;28;20020;-52
2023/12/04 01:55:39;;;;;;;2.60;1.00;;;1.10;99.90;;;;;;5093699;28;20020;-50
2023/12/04 01:58:05;;;;;;;4.30;1.97;;;1.10;99.90;;;;;;5094064;28;20427;-54
2023/12/04 02:00:32;;;;;;;10.90;3.17;;;1.10;99.90;;;;;;5093587;28;20032;-52
2023/12/04 02:02:59;;;;;;;7.27;3.00;;;1.10;99.90;;;;;;5093620;28;20043;-54
2023/12/04 02:05:27;;;;;;;5.00;1.67;;;1.10;99.90;;;;;;5093450;28;20040;-54
2023/12/04 02:07:53;;;;;;;9.50;3.27;;;1.20;99.90;;;;;;5092149;28;20454;-54
2023/12/04 02:10:18;;;;;;;5.97;2.93;;;1.20;99.90;;;;;;5093465;28;20032;-54
2023/12/04 02:12:44;;;;;;;6.53;2.30;;;1.20;99.90;;;;;;5093565;28;20050;-51
2023/12/04 02:15:10;;;;;;;7.03;3.13;;;1.20;99.90;;;;;;5093281;28;20077;-50
2023/12/04 02:17:37;;;;;;;5.33;2.13;;;1.20;99.90;;;;;;5093256;28;20035;-54
2023/12/04 02:20:03;;;;;;;9.33;3.50;;;1.20;99.90;;;;;;5093081;28;20044;-54
2023/12/04 02:22:29;;;;;;;4.57;1.83;;;1.20;99.90;;;;;;5093357;28;20472;-53
2023/12/04 02:24:58;;;;;;;9.57;3.37;;;1.30;99.90;;;;;;5093125;28;20072;-53
2023/12/04 02:27:30;;;;;;;6.97;3.38;;;1.20;99.90;;;;;;5092890;28;20028;-54
2023/12/04 02:30:01;;;;;;;6.53;2.93;;;1.20;99.90;;;;;;5092408;28;20028;-54
2023/12/04 02:32:30;;;;;;;6.87;2.70;;;1.20;99.90;;;;;;5093073;28;20385;-53
2023/12/04 02:34:58;;;;;;;3.40;1.83;;;1.20;99.90;;;;;;5092437;28;20063;-54
2023/12/04 02:37:25;;;;;;;4.87;2.40;;;1.20;99.90;;;;;;5092898;28;20036;-54
2023/12/04 02:39:54;;;;;;;7.03;2.77;;;1.20;99.90;;;;;;5092841;28;20034;-54
2023/12/04 02:42:21;;;;;;;6.72;2.50;;;1.20;99.90;;;;;;5092949;28;20537;-54
2023/12/04 02:44:46;;;;;;;2.60;1.90;;;1.20;99.90;;;;;;5092786;28;20028;-54
2023/12/04 02:47:12;;;;;;;9.23;3.23;;;1.20;99.90;;;;;;5091600;28;20047;-54
2023/12/04 02:49:38;;;;;;;5.67;2.53;;;1.20;99.90;;;;;;5092434;28;20110;-54
2023/12/04 02:52:03;;;;;;;4.83;2.57;;;1.20;99.90;;;;;;5092744;28;20032;-52
2023/12/04 02:54:29;;;;;;;5.63;2.13;;;1.20;99.90;;;;;;5092496;28;20028;-54
2023/12/04 02:56:55;;;;;;;5.33;2.50;;;1.20;99.90;;;;;;5092580;28;20391;-53
2023/12/04 02:59:20;;;;;;;8.67;2.23;;;1.20;99.90;;;;;;5092539;28;20114;-54
2023/12/04 03:01:46;;;;;;;7.37;3.07;;;1.20;99.90;;;;;;5092434;28;20054;-51
2023/12/04 03:04:12;;;;;;;6.07;2.30;;;1.20;99.90;;;;;;5092424;28;20070;-51
2023/12/04 03:06:38;;;;;;;3.27;1.40;;;1.30;99.90;;;;;;5092410;28;20043;-54
2023/12/04 03:09:04;;;;;;;4.87;2.30;;;1.20;99.90;;;;;;5092294;28;20032;-50
2023/12/04 03:11:30;;;;;;;6.47;2.83;;;1.20;99.90;;;;;;5092428;28;20124;-53
2023/12/04 03:13:56;;;;;;;4.63;2.03;;;1.20;99.90;;;;;;5093078;28;20067;-52
2023/12/04 03:16:22;;;;;;;10.20;2.63;;;1.20;99.90;;;;;;5092156;28;20034;-54
2023/12/04 03:18:47;;;;;;;2.67;1.57;;;1.30;99.90;;;;;;5092104;28;20063;-54
2023/12/04 03:21:13;;;;;;;5.93;2.37;;;1.30;99.90;;;;;;5092152;28;20062;-54
2023/12/04 03:23:39;;;;;;;4.83;1.80;;;1.30;99.90;;;;;;5092208;28;20026;-54
2023/12/04 03:26:04;;;;;;;3.67;2.60;;;1.30;99.90;;;;;;5090763;28;20032;-54
2023/12/04 03:28:30;;;;;;;5.13;2.00;;;1.30;99.90;;;;;;5091919;28;20101;-53
2023/12/04 03:30:55;;;;;;;6.70;2.20;;;1.30;99.90;;;;;;5091997;28;20101;-53
2023/12/04 03:33:21;;;;;;;4.90;2.13;;;1.40;99.90;;;;;;5092150;28;20020;-50
2023/12/04 03:35:47;;;;;;;5.40;1.50;;;1.40;99.90;;;;;;5091922;28;20023;-54
2023/12/04 03:38:12;;;;;;;3.40;1.50;;;1.40;99.90;;;;;;5091908;28;20519;-54
2023/12/04 03:40:38;;;;;;;1.17;0.60;;;1.40;99.90;;;;;;5091924;28;20370;-52
2023/12/04 03:43:04;;;;;;;6.63;2.53;;;1.40;99.90;;;;;;5091966;28;20115;-54
2023/12/04 03:45:29;;;;;;;2.70;1.03;;;1.40;99.90;;;;;;5091003;28;20032;-52
2023/12/04 03:47:55;;;;;;;3.90;1.87;;;1.40;99.90;;;;;;5090481;28;20024;-54
2023/12/04 03:50:21;;;;;;;4.23;1.33;;;1.40;99.90;;;;;;5091803;28;20162;-54
2023/12/04 03:52:46;;;;;;;5.60;2.03;;;1.40;99.90;;;;;;5091995;28;20056;-54
2023/12/04 03:55:12;;;;;;;2.90;1.63;;;1.40;99.90;;;;;;5091874;28;20036;-51
2023/12/04 03:57:37;;;;;;;1.83;1.13;;;1.40;99.90;;;;;;5091792;28;20028;-50
2023/12/04 04:00:04;;;;;;;3.63;1.67;;;1.50;99.90;;;;;;5091549;28;20028;-54
2023/12/04 04:02:39;;;;;;;8.30;2.27;;;1.50;99.90;;;;;;5091774;28;20078;-54
2023/12/04 04:05:05;;;;;;;7.53;2.50;;;1.50;99.90;;;;;;5091550;28;20449;-52
2023/12/04 04:07:31;;;;;;;3.60;1.27;;;1.60;99.90;;;;;;5091705;28;20036;-54
2023/12/04 04:09:57;;;;;;;5.47;2.40;;;1.60;99.90;;;;;;5091628;28;20039;-54
2023/12/04 04:12:22;;;;;;;4.53;2.33;;;1.60;99.90;;;;;;5091761;28;20085;-51
2023/12/04 04:14:48;;;;;;;4.43;1.83;;;1.60;99.90;;;;;;5091572;28;20029;-52
2023/12/04 04:17:13;;;;;;;4.73;1.67;;;1.60;99.90;;;;;;5091642;28;20031;-54
2023/12/04 04:19:40;;;;;;;3.77;1.80;;;1.70;99.90;;;;;;5090248;28;20032;-54
2023/12/04 04:22:06;;;;;;;5.43;1.90;;;1.70;99.90;;;;;;5091628;28;20541;-54
2023/12/04 04:24:31;;;;;;;5.57;2.10;;;1.70;99.90;;;;;;5091565;28;20032;-53
2023/12/04 04:26:57;;;;;;;3.90;2.07;;;1.60;99.90;;;;;;5091873;28;20433;-50
2023/12/04 04:29:22;;;;;;;5.70;2.13;;;1.60;99.90;;;;;;5091757;28;20428;-53
2023/12/04 04:31:48;;;;;;;4.90;2.03;;;1.60;99.90;;;;;;5091626;28;20059;-54
2023/12/04 04:34:13;;;;;;;2.67;1.30;;;1.60;99.90;;;;;;5091695;28;20031;-54
2023/12/04 04:36:39;;;;;;;3.80;1.73;;;1.60;99.90;;;;;;5091362;28;20186;-54
2023/12/04 04:39:05;;;;;;;7.93;2.03;;;1.60;99.90;;;;;;5091353;28;20036;-54
2023/12/04 04:41:30;;;;;;;6.50;2.10;;;1.60;99.90;;;;;;5091418;28;20448;-54
2023/12/04 04:43:56;;;;;;;3.53;1.30;;;1.50;99.90;;;;;;5091406;28;20028;-54
2023/12/04 04:46:21;;;;;;;3.03;1.37;;;1.60;99.90;;;;;;5091556;28;20476;-50
2023/12/04 04:48:47;;;;;;;6.23;2.07;;;1.60;99.90;;;;;;5091322;28;20036;-53
2023/12/04 04:51:13;;;;;;;4.00;1.80;;;1.60;99.90;;;;;;5091577;28;20033;-54
2023/12/04 04:53:38;;;;;;;5.43;1.73;;;1.60;99.90;;;;;;5091466;28;20028;-54
2023/12/04 04:56:05;;;;;;;6.00;2.50;;;1.60;99.90;;;;;;5091302;28;20538;-54
2023/12/04 04:58:30;;;;;;;5.40;2.07;;;1.60;99.90;;;;;;5094427;28;20024;-54
2023/12/04 05:00:56;;;;;;;1.87;0.63;;;1.60;99.90;;;;;;5093891;28;20473;-54
2023/12/04 05:03:21;;;;;;;3.63;1.17;;;1.60;99.90;;;;;;5095216;28;20044;-54
2023/12/04 05:05:47;;;;;;;5.57;2.43;;;1.50;99.90;;;;;;5095118;28;20051;-53
2023/12/04 05:08:13;;;;;;;5.27;2.00;;;1.50;99.90;;;;;;5095090;28;20419;-54
2023/12/04 05:10:39;;;;;;;4.63;1.73;;;1.50;99.90;;;;;;5094910;28;20028;-54
2023/12/04 05:13:05;;;;;;;4.30;1.23;;;1.50;99.90;;;;;;5094823;28;20439;-53
2023/12/04 05:15:30;;;;;;;6.67;2.30;;;1.50;99.90;;;;;;5094620;28;20107;-53
2023/12/04 05:17:56;;;;;;;7.53;2.57;;;1.50;99.90;;;;;;5093513;28;20127;-54
2023/12/04 05:20:21;;;;;;;4.80;2.30;;;1.50;99.90;;;;;;5094726;28;20032;-54
2023/12/04 05:22:48;;;;;;;7.63;2.30;;;1.50;99.90;;;;;;5094883;28;20035;-54
2023/12/04 05:25:14;;;;;;;3.53;1.60;;;1.50;99.90;;;;;;5094538;28;20322;-54
2023/12/04 05:27:40;;;;;;;4.67;2.03;;;1.50;99.90;;;;;;5094510;28;20028;-54
2023/12/04 05:30:06;;;;;;;3.93;2.53;;;1.50;99.90;;;;;;5094336;28;20032;-53
2023/12/04 05:32:32;;;;;;;5.73;2.30;;;1.40;99.90;;;;;;5094626;28;20040;-51
2023/12/04 05:34:57;;;;;;;6.90;2.63;;;1.40;99.90;;;;;;5094593;28;20043;-54
2023/12/04 05:37:23;;;;;;;6.90;3.17;;;1.50;99.90;;;;;;5094235;28;20035;-52
2023/12/04 05:39:49;;;;;;;5.87;2.17;;;1.40;99.90;;;;;;5093048;28;20062;-51
2023/12/04 05:42:14;;;;;;;6.40;2.03;;;1.40;99.90;;;;;;5094161;28;20024;-54
2023/12/04 05:44:40;;;;;;;6.87;1.87;;;1.50;99.90;;;;;;5094178;28;20480;-50
2023/12/04 05:47:08;;;;;;;2.63;1.70;;;1.40;99.90;;;;;;5094339;28;20047;-54
2023/12/04 05:49:33;;;;;;;7.67;2.50;;;1.40;99.90;;;;;;5093965;28;20487;-52
2023/12/04 05:51:59;;;;;;;6.90;2.50;;;1.40;99.90;;;;;;5094052;28;20030;-54
2023/12/04 05:54:25;;;;;;;7.07;3.23;;;1.40;99.90;;;;;;5094040;28;20034;-53
2023/12/04 05:56:50;;;;;;;5.93;2.20;;;1.40;99.90;;;;;;5094116;28;20024;-54
2023/12/04 05:59:16;;;;;;;5.43;2.67;;;1.40;99.90;;;;;;5094333;28;20786;-54
2023/12/04 06:01:42;;;;;;;6.00;2.73;;;1.40;99.90;;;;;;5093831;28;20496;-54
2023/12/04 06:04:07;;;;;;;6.17;2.13;;;1.40;99.90;;;;;;5093923;28;20032;-51
2023/12/04 06:06:33;;;;;;;6.67;2.60;;;1.40;99.90;;;;;;5093680;28;20043;-54
2023/12/04 06:08:58;;;;;;;3.17;1.73;;;1.40;99.90;;;;;;5093114;28;20044;-50
2023/12/04 06:11:24;;;;;;;7.03;2.90;;;1.40;99.90;;;;;;5093656;28;20028;-51
2023/12/04 06:13:49;;;;;;;8.80;2.30;;;1.40;99.90;;;;;;5093716;28;20400;-51
2023/12/04 06:16:15;;;;;;;9.10;3.37;;;1.40;99.90;;;;;;5093589;28;20043;-51
2023/12/04 06:18:41;;;;;;;5.57;2.43;;;1.40;99.90;;;;;;5093671;28;20123;-51
2023/12/04 06:21:07;;;;;;;7.73;3.43;;;1.40;99.90;;;;;;5093789;28;20032;-51
2023/12/04 06:23:32;;;;;;;4.97;2.60;;;1.40;99.90;;;;;;5093855;28;20028;-54
2023/12/04 06:25:58;;;;;;;6.27;2.43;;;1.40;99.90;;;;;;5093357;28;20032;-53
2023/12/04 06:28:24;;;;;;;6.00;2.27;;;1.40;99.90;;;;;;5093297;28;20028;-50
2023/12/04 06:30:50;;;;;;;5.07;2.63;;;1.40;99.90;;;;;;5093905;28;20453;-50
2023/12/04 06:33:18;;;;;;;7.20;3.03;;;1.40;99.90;;;;;;5092392;28;20040;-50
2023/12/04 06:35:44;;;;;;;4.47;2.00;;;1.40;99.90;;;;;;5092571;28;20031;-50
2023/12/04 06:38:13;;;;;;;7.73;3.30;;;1.40;99.90;;;;;;5093653;28;20032;-49
2023/12/04 06:40:39;;;;;;;8.75;3.38;;;1.40;99.90;;;;;;5093687;28;20032;-50
2023/12/04 06:43:05;;;;;;;3.30;1.53;;;1.50;99.90;;;;;;5094994;28;20042;-51
2023/12/04 06:45:32;;;;;;;3.67;2.00;;;1.50;99.90;;;;;;5094688;28;20702;-49
2023/12/04 06:47:59;;;;;;;5.23;2.13;;;1.50;99.90;;;;;;5095055;28;20123;-50
2023/12/04 06:50:24;;;;;;;6.83;2.87;;;1.50;99.90;;;;;;5094781;28;20035;-54
2023/12/04 06:52:50;;;;;;;8.30;3.00;;;1.50;99.90;;;;;;5093865;28;20032;-49
2023/12/04 06:55:16;;;;;;;4.37;2.57;;;1.40;99.90;;;;;;5093259;28;20056;-54
2023/12/04 06:57:41;;;;;;;6.43;2.50;;;1.50;99.90;;;;;;5092566;28;20089;-53
2023/12/04 07:00:08;;;;;;;5.23;2.10;;;1.40;99.90;;;;;;5092471;28;20357;-54
2023/12/04 07:02:33;;;;;;;5.73;2.57;;;1.40;99.90;;;;;;5093400;28;20028;-50
2023/12/04 07:04:59;;;;;;;4.80;1.73;;;1.50;99.90;;;;;;5092940;28;20050;-54
2023/12/04 07:07:25;;;;;;;5.50;2.03;;;1.40;99.90;;;;;;5091207;28;20035;-53
2023/12/04 07:09:50;;;;;;;6.07;2.80;;;1.40;99.90;;;;;;5092203;28;20032;-54
2023/12/04 07:12:16;;;;;;;5.27;2.17;;;1.40;99.90;;;;;;5092309;28;20105;-54
2023/12/04 07:14:41;;;;;;;4.07;2.30;;;1.50;99.90;;;;;;5092225;28;20460;-54
2023/12/04 07:17:07;;;;;;;4.00;2.40;;;1.40;99.90;;;;;;5092330;28;20112;-51
2023/12/04 07:19:33;;;;;;;3.63;1.40;;;1.40;99.90;;;;;;5092047;28;20104;-52
2023/12/04 07:21:58;;;;;;;6.03;2.13;;;1.50;99.90;;;;;;5091495;28;20516;-53
2023/12/04 07:24:26;;;;;;;7.57;2.53;;;1.50;99.90;;;;;;5092145;28;20114;-54
2023/12/04 07:26:51;;;;;;;5.00;2.50;;;1.60;99.90;;;;;;5092205;28;20037;-54
2023/12/04 07:29:17;;;;;;;7.13;2.93;;;1.60;99.90;;;;;;5092027;28;20032;-53
2023/12/04 07:31:43;;;;;;;9.83;3.47;;;1.50;99.90;;;;;;5092207;28;20024;-53
2023/12/04 07:34:09;;;;;;;4.37;2.10;;;1.60;99.90;;;;;;5091063;28;20393;-53
2023/12/04 07:36:34;;;;;;;6.30;3.07;;;1.60;99.90;;;;;;5092012;28;20043;-53
2023/12/04 07:39:00;;;;;;;7.00;2.93;;;1.60;99.90;;;;;;5091913;28;20036;-54
2023/12/04 07:41:26;;;;;;;9.83;3.87;;;1.60;99.90;;;;;;5092384;28;20071;-53
2023/12/04 07:43:51;;;;;;;9.13;3.50;;;1.60;99.90;;;;;;5092156;28;20596;-53
2023/12/04 07:46:17;;;;;;;6.97;2.33;;;1.60;99.90;;;;;;5092112;28;20028;-54
2023/12/04 07:48:43;;;;;;;6.13;2.20;;;1.60;99.90;;;;;;5091932;28;20032;-54
2023/12/04 07:51:09;;;;;;;10.77;3.37;;;1.60;99.90;;;;;;5090757;28;20042;-54
2023/12/04 07:53:35;;;;;;;8.97;3.23;;;1.60;99.90;;;;;;5091853;28;20024;-52
2023/12/04 07:56:03;;;;;;;8.63;3.53;;;1.60;99.90;;;;;;5091791;28;20116;-54
2023/12/04 07:58:28;;;;;;;7.30;3.23;;;1.60;99.90;;;;;;5092106;28;20029;-53
2023/12/04 08:00:54;;;;;;;5.93;2.20;;;1.60;99.90;;;;;;5092056;28;20122;-53
2023/12/04 08:03:20;;;;;;;6.03;2.07;;;1.70;99.90;;;;;;5092075;28;20028;-53
2023/12/04 08:05:45;;;;;;;5.43;2.57;;;1.70;99.90;;;;;;5090824;28;20071;-54
2023/12/04 08:08:11;;;;;;;3.40;1.87;;;1.70;99.90;;;;;;5090488;28;20039;-53
2023/12/04 08:10:37;;;;;;;7.17;2.60;;;1.70;99.90;;;;;;5091671;28;20054;-53
2023/12/04 08:13:02;;;;;;;11.50;2.83;;;1.70;99.90;;;;;;5091859;28;20031;-53
2023/12/04 08:15:28;;;;;;;3.87;1.83;;;1.80;99.90;;;;;;5091738;28;20024;-49
2023/12/04 08:17:55;;;;;;;5.90;2.83;;;1.90;99.90;;;;;;5091702;28;20036;-53
2023/12/04 08:20:22;;;;;;;7.27;2.30;;;1.90;99.90;;;;;;5073351;28;20534;-51
2023/12/04 08:22:48;;;;;;;5.70;1.70;;;1.90;99.90;;;;;;5091623;28;20032;-54
2023/12/04 08:25:13;;;;;;;6.60;2.83;;;2.00;99.90;;;;;;5091856;28;20089;-53
2023/12/04 08:27:39;;;;;;;5.13;1.93;;;2.00;99.90;;;;;;5091697;28;20040;-49
2023/12/04 08:30:05;;;;;;;2.30;1.07;;;2.00;99.90;;;;;;5091680;28;20079;-54
2023/12/04 08:32:31;;;;;;;4.50;2.10;;;2.10;99.90;;;;;;5092311;28;20476;-50
2023/12/04 08:34:57;;;;;;;5.07;2.30;;;2.10;99.90;;;;;;5095512;28;20074;-54
2023/12/04 08:37:22;;;;;;;5.23;2.60;;;2.10;99.90;;;;;;5095309;28;20032;-53
2023/12/04 08:39:48;;;;;;;6.47;1.80;;;2.10;99.90;;;;;;5095362;28;20028;-54
2023/12/04 08:42:14;;;;;;;5.70;2.03;;;2.10;99.90;;;;;;5095764;28;20110;-54
2023/12/04 08:44:40;;;;;;;6.13;2.33;;;2.20;99.90;;;;;;5095160;28;20032;-53
2023/12/04 08:47:06;;;;;;;4.37;2.27;;;2.30;99.90;;;;;;5095303;28;20043;-54
2023/12/04 08:49:32;;;;;;;3.17;1.63;;;2.30;99.90;;;;;;5095118;28;20066;-50
2023/12/04 08:51:58;;;;;;;3.37;1.23;;;2.30;99.90;;;;;;5093933;28;20032;-54
2023/12/04 08:54:24;;;;;;;4.53;1.63;;;2.40;99.90;;;;;;5093852;28;20357;-54
2023/12/04 08:56:50;;;;;;;4.07;1.87;;;2.40;99.90;;;;;;5093997;28;20024;-54
2023/12/04 08:59:16;;;;;;;2.77;1.30;;;2.40;99.90;;;;;;5093884;28;20107;-54
2023/12/04 09:01:42;;;;;;;9.13;4.27;;;2.50;99.90;;;;;;5094991;28;20518;-52
2023/12/04 09:04:09;;;;;;;6.93;2.60;;;2.60;99.90;;;;;;5095034;28;20396;-54
2023/12/04 09:06:35;;;;;;;3.27;1.67;;;2.70;99.90;;;;;;5094717;28;20050;-53
2023/12/04 09:09:02;;;;;;;4.87;2.00;;;2.60;99.90;;;;;;5094749;28;20035;-53
2023/12/04 09:11:28;;;;;;;5.50;2.23;;;2.70;99.90;;;;;;5094563;28;20032;-52
2023/12/04 09:13:53;;;;;;;4.73;1.83;;;2.80;99.90;;;;;;5093458;28;20067;-54
2023/12/04 09:16:19;;;;;;;1.57;0.87;;;2.80;99.90;;;;;;5094724;28;20062;-54
2023/12/04 09:18:45;;;;;;;7.03;2.07;;;2.80;99.90;;;;;;5094559;28;20056;-52
2023/12/04 09:21:11;;;;;;;2.30;1.10;;;2.80;99.90;;;;;;5094558;28;20032;-53
2023/12/04 09:23:36;;;;;;;3.50;1.83;;;2.70;99.90;;;;;;5093438;28;20036;-53
2023/12/04 09:26:02;;;;;;;5.47;1.73;;;2.70;99.90;;;;;;5094434;28;20092;-52
2023/12/04 09:28:28;;;;;;;6.37;2.00;;;2.70;99.90;;;;;;5094425;28;20044;-52
2023/12/04 09:30:53;;;;;;;5.10;1.93;;;2.70;99.90;;;;;;5094416;28;20032;-52
2023/12/04 09:33:19;;;;;;;3.50;1.70;;;2.80;99.90;;;;;;5094966;28;20027;-50
2023/12/04 09:35:45;;;;;;;7.87;1.70;;;2.80;99.90;;;;;;5094114;28;20116;-53
2023/12/04 09:38:10;;;;;;;3.20;1.73;;;2.80;99.90;;;;;;5094241;28;20066;-53
2023/12/04 09:40:36;;;;;;;4.33;1.87;;;2.80;99.90;;;;;;5094222;28;20036;-53
2023/12/04 09:43:03;;;;;;;3.60;1.63;;;2.80;99.90;;;;;;5093780;28;20036;-54
2023/12/04 09:45:31;;;;;;;2.80;1.13;;;2.80;99.90;;;;;;5093593;28;20032;-54
2023/12/04 09:47:58;;;;;;;5.03;1.83;;;2.90;99.90;;;;;;5093897;28;20119;-52
2023/12/04 09:50:23;;;;;;;1.67;0.93;;;2.90;99.90;;;;;;5093856;28;20464;-50
2023/12/04 09:52:53;;;;;;;3.57;1.40;;;3.00;99.90;;;;;;5093937;28;20027;-52
2023/12/04 09:55:18;;;;;;;;;;;3.00;99.90;;;;;;5094449;28;20036;-53
2023/12/04 09:57:45;;;;;;;9.07;2.10;;;3.00;99.90;;;;;;5094103;28;19908;-53
2023/12/04 10:00:13;;;;;;;1.77;0.93;;;3.10;99.90;;;;;;5093934;28;20407;-53
2023/12/04 10:02:40;;;;;;;3.13;1.53;;;3.10;99.90;;;;;;5093984;28;20036;-54
2023/12/04 10:05:09;;;;;;;5.57;1.83;;;3.10;99.90;;;;;;5092441;28;20024;-54
2023/12/04 10:07:36;;;;;;;3.63;1.58;;;3.10;99.90;;;;;;5093761;28;20024;-53
2023/12/04 10:10:05;;;;;;;5.53;1.73;;;3.20;99.90;;;;;;5092573;28;20040;-53
2023/12/04 10:12:33;;;;;;;4.38;1.63;;;3.20;99.90;;;;;;5093587;28;20024;-53
2023/12/04 10:15:09;;;;;;;2.63;1.10;;;3.20;99.90;;;;;;5093590;28;20093;-54
2023/12/04 10:17:40;;;;;;;4.37;1.67;;;3.20;99.90;;;;;;5093665;28;20028;-53
2023/12/04 10:20:12;;;;;;;4.23;1.70;;;3.20;99.90;;;;;;5093500;28;20051;-54
2023/12/04 10:22:52;;;;;;;4.07;1.80;;;3.20;99.90;;;;;;5093513;28;20044;-53
2023/12/04 10:25:18;;;;;;;1.57;1.13;;;3.20;99.90;;;;;;5093275;28;20065;-53
2023/12/04 10:27:45;;;;;;;4.33;1.77;;;3.10;99.90;;;;;;5093249;28;20035;-50
2023/12/04 10:30:31;;;;;;;7.00;2.10;;;3.10;99.90;;;;;;5092144;28;20039;-52
2023/12/04 10:33:04;;;;;;;4.83;1.37;;;3.10;99.90;;;;;;5093354;28;20032;-53
2023/12/04 10:35:37;;;;;;;3.97;1.70;;;3.10;99.90;;;;;;5093076;28;20035;-53
2023/12/04 10:38:04;;;;;;;4.20;1.57;;;3.10;99.90;;;;;;5093237;28;20051;-54
2023/12/04 10:40:35;;;;;;;4.20;1.83;;;3.10;99.90;;;;;;5092890;28;20468;-54
2023/12/04 10:43:21;;;;;;;5.30;1.50;;;3.10;99.90;;;;;;5093111;28;20036;-54
2023/12/04 10:45:48;;;;;;;5.17;2.10;;;3.20;99.90;;;;;;5092994;28;20032;-54
2023/12/04 10:48:15;;;;;;;6.50;2.47;;;3.20;99.90;;;;;;5093117;28;20043;-54
2023/12/04 10:50:46;;;;;;;4.67;2.03;;;3.10;99.90;;;;;;5092936;28;20035;-54
2023/12/04 10:53:13;;;;;;;5.43;2.13;;;3.10;99.90;;;;;;5093001;28;20024;-53
2023/12/04 10:55:40;;;;;;;4.60;1.50;;;3.20;99.90;;;;;;5092585;28;20024;-51
2023/12/04 10:58:11;;;;;;;3.30;1.93;;;3.20;99.90;;;;;;5092989;28;20028;-53
2023/12/04 11:00:50;;;;;;;3.33;1.80;;;3.10;99.90;;;;;;5092765;28;20145;-54
2023/12/04 11:03:22;;;;;;;4.53;1.58;;;3.10;99.90;;;;;;5092816;28;20040;-53
2023/12/04 11:05:54;;;;;;;3.67;2.10;;;3.00;99.90;;;;;;5092676;28;20040;-52
2023/12/04 11:08:20;;;;;;;4.53;2.00;;;3.00;99.90;;;;;;5092717;28;20463;-51
2023/12/04 11:10:57;;;;;;;4.90;1.70;;;3.00;99.90;;;;;;5092789;28;20217;-53
2023/12/04 11:13:31;;;;;;;3.10;1.87;;;3.00;99.90;;;;;;5091397;28;20443;-54
2023/12/04 11:16:22;;;;;;;3.93;2.17;;;2.90;99.90;;;;;;5092387;28;20036;-54
2023/12/04 11:18:56;;;;;;;2.93;0.97;;;2.90;99.90;;;;;;5092379;28;20081;-53
2023/12/04 11:21:24;;;;;;;2.30;1.00;;;2.90;99.90;;;;;;5092344;28;20488;-52
2023/12/04 11:23:50;;;;;;;5.40;1.67;;;2.90;99.90;;;;;;5092458;28;20038;-54
2023/12/04 11:26:16;;;;;;;3.67;1.83;;;3.00;99.90;;;;;;5092157;28;20028;-54
2023/12/04 11:28:43;;;;;;;6.90;2.43;;;3.00;99.90;;;;;;5092230;28;20047;-54
2023/12/04 11:31:09;;;;;;;5.80;1.10;;;2.90;99.90;;;;;;5092122;28;20020;-53
2023/12/04 11:33:38;;;;;;;3.57;2.03;;;2.90;99.90;;;;;;5092153;28;20206;-55
2023/12/04 11:36:11;;;;;;;3.10;1.20;;;2.90;99.90;;;;;;5092096;28;20465;-54
2023/12/04 11:38:37;;;;;;;6.23;2.10;;;2.90;99.90;;;;;;5092091;28;20031;-51
2023/12/04 11:41:20;;;;;;;7.03;2.23;;;2.90;99.90;;;;;;5092292;28;20055;-53
2023/12/04 11:43:47;;;;;;;5.17;1.67;;;2.90;99.90;;;;;;5092321;28;20032;-52
2023/12/04 11:46:20;;;;;;;2.07;1.00;;;2.80;99.90;;;;;;5092152;28;20036;-53
2023/12/04 11:48:47;;;;;;;3.80;1.70;;;2.80;99.90;;;;;;5091951;28;20038;-53
2023/12/04 11:51:35;;;;;;;5.00;1.80;;;2.80;99.90;;;;;;5092150;28;20553;-51
2023/12/04 11:54:03;;;;;;;7.33;2.57;;;2.80;99.90;;;;;;5087890;28;20103;-53
2023/12/04 11:56:29;;;;;;;3.90;2.07;;;2.70;99.90;;;;;;5091940;28;20035;-52
2023/12/04 11:59:05;;;;;;;4.00;1.83;;;2.70;99.90;;;;;;5091992;28;20032;-53
2023/12/04 12:01:37;;;;;;;7.63;3.00;;;2.70;99.90;;;;;;5090794;28;20036;-50
2023/12/04 12:04:06;;;;;;;7.07;3.27;;;2.60;99.90;;;;;;5091934;28;20058;-50
2023/12/04 12:06:32;;;;;;;5.38;2.47;;;2.60;99.90;;;;;;5091151;28;20031;-53
2023/12/04 12:08:58;;;;;;;7.17;2.73;;;2.60;99.90;;;;;;5095973;28;20540;-53
2023/12/04 12:11:24;;;;;;;4.90;2.90;;;2.60;99.90;;;;;;5096106;28;20076;-53
2023/12/04 12:13:50;;;;;;;3.50;2.17;;;2.40;99.90;;;;;;5095969;28;20036;-50
2023/12/04 12:16:18;;;;;;;6.90;2.60;;;2.40;99.90;;;;;;5095925;28;20302;-49
2023/12/04 12:18:43;;;;;;;7.80;3.00;;;2.30;99.90;;;;;;5096437;28;20028;-54
2023/12/04 12:21:09;;;;;;;9.77;3.27;;;2.20;99.90;;;;;;5095779;28;20434;-54
2023/12/04 12:23:35;;;;;;;6.70;2.93;;;2.30;99.90;;;;;;5096219;28;20028;-54
2023/12/04 12:26:01;;;;;;;6.77;2.83;;;2.30;99.90;;;;;;5094665;28;20059;-52
2023/12/04 12:28:28;;;;;;;8.43;2.73;;;2.40;99.90;;;;;;5095769;28;20477;-53
2023/12/04 12:30:54;;;;;;;10.97;3.23;;;2.40;99.90;;;;;;5095644;28;20046;-54
2023/12/04 12:33:20;;;;;;;5.33;2.00;;;2.40;99.90;;;;;;5095625;28;20420;-55
2023/12/04 12:35:47;;;;;;;7.07;2.27;;;2.40;99.90;;;;;;5095482;28;20059;-53
2023/12/04 12:38:13;;;;;;;9.70;3.50;;;2.40;99.90;;;;;;5095526;28;20065;-53
2023/12/04 12:40:40;;;;;;;7.47;2.60;;;2.40;99.90;;;;;;5095557;28;20039;-52
2023/12/04 12:43:06;;;;;;;6.70;2.70;;;2.40;99.90;;;;;;5094660;28;20492;-50
2023/12/04 12:45:42;;;;;;;9.40;3.10;;;2.40;99.90;;;;;;5095484;28;20536;-51
2023/12/04 12:48:13;;;;;;;7.53;3.17;;;2.50;99.90;;;;;;5095244;28;20161;-53
2023/12/04 12:50:38;;;;;;;9.70;3.20;;;2.50;99.90;;;;;;5095422;28;20024;-53
2023/12/04 12:53:04;;;;;;;5.70;2.10;;;2.50;99.90;;;;;;5095500;28;20350;-51